Attica, IN

5:27 PM EDT on October 31, 2014 (GMT -0400)
Warren County, IN | Change Station
CLOSE
Current Station
Personal Weather Station
Location: Attica, IN
Elevation: 615 ft
Nearby Weather Stations
Active Advisory: Freeze Warning Active Notice: Public Information Statement

Elev 615 ft 40.35 °N, 87.21 °W | Updated 7 minutes ago

Overcast
Overcast
36.8 °F
Feels Like 28 °F
N
14.0
Wind Variable Wind from NW
Gusts 14.0 mph

Today
High -- | Low -- °F
--% Chance of Precip.
Yesterday
High -- | Low -- °F
Precip. -- in
8:17 AM 6:47 PM
First Quarter, 59% visible
Pressure 30.09 in
Visibility 7.0 miles
Clouds Mostly Cloudy 900 ft
Overcast 1800 ft
Windchill 28 °F
Dew Point 35 °F
Humidity 93%
Rainfall 0.04 in
Snow Depth Not available.
UV 0 out of 12
Pollen .30 out of 12
Air Quality Not available.
Flu Activity Not available.
METAR KLAF 312054Z 34016G24KT 7SM -RA BKN009 OVC018 02/01 A3008 RMK AO2 PK WND 31031/2000 RAB18SNE18B36E53 SLP189 P0005 60008 T00170006 53012

More Conditions Fewer Conditions

Pressure 30.09 in
Visibility 7.0 miles
Clouds Mostly Cloudy 900 ft
Overcast 1800 ft
Windchill 28 °F
Dew Point 35 °F
Humidity 93%
Rainfall 0.04 in
Snow Depth Not available.
UV 0 out of 12
Pollen .30 out of 12
Air Quality Not available.
Flu Activity Not available.
METAR KLAF 312054Z 34016G24KT 7SM -RA BKN009 OVC018 02/01 A3008 RMK AO2 PK WND 31031/2000 RAB18SNE18B36E53 SLP189 P0005 60008 T00170006 53012

More Conditions Fewer Conditions

10-Day Weather Forecast

Almanac

Astronomy

Oct. 31, 2014 Rise Set
Actual Time
Civil Twilight
Nautical Twilight
Astronomical Twilight
Moon
Length of Visible Light
Length of Day
Tomorrow will be .
, % of the Moon is Illuminated

Today's Extremes

State Highs State Lows

Community

WunderPhotos

Upload Photos

1,766,734 photos uploaded!

WunderBlogs® & News

Nearby

Air Quality

  Air Quality AQ Index Pollutant
Not available.

Snow Depth

Station Depth Elevation

Earthquake Activity

City Distance Mag. Time & Date
Minimum magnitude displayed is 2.5.

Coastal Water Temperatures

Place Temperature

Nearby Weather Stations